sensor_id;sensor_type;location;lat;lon;timestamp;P1;durP1;ratioP1;P2;durP2;ratioP2
56788;SDS011;42657;51.650;17.780;2022-12-18T00:00:59;71.40;;;23.30;;
56788;SDS011;42657;51.650;17.780;2022-12-18T00:04:23;71.80;;;23.60;;
56788;SDS011;42657;51.650;17.780;2022-12-18T00:07:25;58.90;;;20.70;;
56788;SDS011;42657;51.650;17.780;2022-12-18T00:10:27;57.50;;;21.30;;
56788;SDS011;42657;51.650;17.780;2022-12-18T00:13:30;61.70;;;22.30;;
56788;SDS011;42657;51.650;17.780;2022-12-18T00:16:31;66.40;;;21.30;;
56788;SDS011;42657;51.650;17.780;2022-12-18T00:19:33;74.60;;;24.80;;
56788;SDS011;42657;51.650;17.780;2022-12-18T00:22:34;78.50;;;27.20;;
56788;SDS011;42657;51.650;17.780;2022-12-18T00:25:36;83.80;;;27.80;;
56788;SDS011;42657;51.650;17.780;2022-12-18T00:28:38;81.00;;;25.20;;
56788;SDS011;42657;51.650;17.780;2022-12-18T00:31:39;71.30;;;26.30;;
56788;SDS011;42657;51.650;17.780;2022-12-18T00:34:41;61.00;;;21.70;;
56788;SDS011;42657;51.650;17.780;2022-12-18T00:37:43;69.70;;;24.00;;
56788;SDS011;42657;51.650;17.780;2022-12-18T00:40:44;54.90;;;19.40;;
56788;SDS011;42657;51.650;17.780;2022-12-18T00:43:46;66.10;;;21.70;;
56788;SDS011;42657;51.650;17.780;2022-12-18T00:46:47;64.30;;;21.90;;
56788;SDS011;42657;51.650;17.780;2022-12-18T00:49:50;74.10;;;23.20;;
56788;SDS011;42657;51.650;17.780;2022-12-18T00:52:51;65.40;;;21.80;;
56788;SDS011;42657;51.650;17.780;2022-12-18T00:55:53;63.00;;;20.10;;
56788;SDS011;42657;51.650;17.780;2022-12-18T00:58:55;75.40;;;22.70;;
56788;SDS011;42657;51.650;17.780;2022-12-18T01:01:56;65.00;;;21.30;;
56788;SDS011;42657;51.650;17.780;2022-12-18T01:05:03;67.70;;;20.00;;
56788;SDS011;42657;51.650;17.780;2022-12-18T01:08:05;65.40;;;21.50;;
56788;SDS011;42657;51.650;17.780;2022-12-18T01:11:11;67.20;;;20.80;;
56788;SDS011;42657;51.650;17.780;2022-12-18T01:14:14;62.10;;;20.30;;
56788;SDS011;42657;51.650;17.780;2022-12-18T01:17:15;52.50;;;18.80;;
56788;SDS011;42657;51.650;17.780;2022-12-18T01:20:17;62.40;;;19.30;;
56788;SDS011;42657;51.650;17.780;2022-12-18T01:23:18;62.90;;;18.60;;
56788;SDS011;42657;51.650;17.780;2022-12-18T01:26:20;63.30;;;20.40;;
56788;SDS011;42657;51.650;17.780;2022-12-18T01:29:22;62.90;;;21.00;;
56788;SDS011;42657;51.650;17.780;2022-12-18T01:32:23;68.20;;;20.80;;
56788;SDS011;42657;51.650;17.780;2022-12-18T01:35:25;62.30;;;19.80;;
56788;SDS011;42657;51.650;17.780;2022-12-18T01:38:28;61.90;;;21.00;;
56788;SDS011;42657;51.650;17.780;2022-12-18T01:41:30;61.70;;;19.80;;
56788;SDS011;42657;51.650;17.780;2022-12-18T01:47:55;60.10;;;21.60;;
56788;SDS011;42657;51.650;17.780;2022-12-18T01:50:59;60.90;;;19.90;;
56788;SDS011;42657;51.650;17.780;2022-12-18T01:54:01;66.60;;;21.70;;
56788;SDS011;42657;51.650;17.780;2022-12-18T01:57:03;65.50;;;23.10;;
56788;SDS011;42657;51.650;17.780;2022-12-18T02:00:16;71.90;;;21.70;;
56788;SDS011;42657;51.650;17.780;2022-12-18T02:03:19;74.70;;;21.20;;
56788;SDS011;42657;51.650;17.780;2022-12-18T02:06:23;64.00;;;19.40;;
56788;SDS011;42657;51.650;17.780;2022-12-18T02:09:36;68.40;;;20.50;;
56788;SDS011;42657;51.650;17.780;2022-12-18T02:12:48;59.50;;;20.80;;
56788;SDS011;42657;51.650;17.780;2022-12-18T02:23:24;68.50;;;22.10;;
56788;SDS011;42657;51.650;17.780;2022-12-18T02:27:04;67.40;;;20.30;;
56788;SDS011;42657;51.650;17.780;2022-12-18T02:30:08;59.60;;;21.80;;
56788;SDS011;42657;51.650;17.780;2022-12-18T02:33:10;74.80;;;25.60;;
56788;SDS011;42657;51.650;17.780;2022-12-18T02:36:14;89.70;;;31.90;;
56788;SDS011;42657;51.650;17.780;2022-12-18T02:39:18;69.70;;;23.30;;
56788;SDS011;42657;51.650;17.780;2022-12-18T02:42:23;87.00;;;23.80;;
56788;SDS011;42657;51.650;17.780;2022-12-18T02:45:25;85.40;;;26.20;;
56788;SDS011;42657;51.650;17.780;2022-12-18T02:48:31;81.30;;;23.40;;
56788;SDS011;42657;51.650;17.780;2022-12-18T03:02:06;67.60;;;21.80;;
56788;SDS011;42657;51.650;17.780;2022-12-18T03:05:09;79.20;;;23.10;;
56788;SDS011;42657;51.650;17.780;2022-12-18T03:08:24;61.00;;;18.00;;
56788;SDS011;42657;51.650;17.780;2022-12-18T03:11:30;76.40;;;20.30;;
56788;SDS011;42657;51.650;17.780;2022-12-18T03:14:35;65.10;;;18.00;;
56788;SDS011;42657;51.650;17.780;2022-12-18T03:17:40;68.40;;;18.60;;
56788;SDS011;42657;51.650;17.780;2022-12-18T03:20:45;63.60;;;18.90;;
56788;SDS011;42657;51.650;17.780;2022-12-18T03:23:51;66.20;;;18.80;;
56788;SDS011;42657;51.650;17.780;2022-12-18T03:26:55;83.00;;;24.80;;
56788;SDS011;42657;51.650;17.780;2022-12-18T03:30:05;65.20;;;21.20;;
56788;SDS011;42657;51.650;17.780;2022-12-18T03:33:19;66.60;;;19.50;;
56788;SDS011;42657;51.650;17.780;2022-12-18T03:36:45;55.00;;;19.30;;
56788;SDS011;42657;51.650;17.780;2022-12-18T03:39:47;69.50;;;21.40;;
56788;SDS011;42657;51.650;17.780;2022-12-18T03:42:52;70.10;;;21.60;;
56788;SDS011;42657;51.650;17.780;2022-12-18T03:46:08;65.80;;;21.90;;
56788;SDS011;42657;51.650;17.780;2022-12-18T03:49:24;55.60;;;19.30;;
56788;SDS011;42657;51.650;17.780;2022-12-18T03:52:46;67.30;;;20.50;;
56788;SDS011;42657;51.650;17.780;2022-12-18T03:55:53;64.00;;;19.40;;
56788;SDS011;42657;51.650;17.780;2022-12-18T03:58:56;64.70;;;19.90;;
56788;SDS011;42657;51.650;17.780;2022-12-18T04:02:04;66.10;;;19.30;;
56788;SDS011;42657;51.650;17.780;2022-12-18T04:05:08;65.20;;;20.40;;
56788;SDS011;42657;51.650;17.780;2022-12-18T04:08:11;66.30;;;19.40;;
56788;SDS011;42657;51.650;17.780;2022-12-18T04:11:14;66.00;;;19.60;;
56788;SDS011;42657;51.650;17.780;2022-12-18T04:14:17;73.20;;;21.60;;
56788;SDS011;42657;51.650;17.780;2022-12-18T04:17:18;79.30;;;21.50;;
56788;SDS011;42657;51.650;17.780;2022-12-18T04:20:20;80.00;;;21.20;;
56788;SDS011;42657;51.650;17.780;2022-12-18T04:23:21;72.30;;;21.40;;
56788;SDS011;42657;51.650;17.780;2022-12-18T04:26:23;63.80;;;21.10;;
56788;SDS011;42657;51.650;17.780;2022-12-18T04:29:24;60.40;;;19.70;;
56788;SDS011;42657;51.650;17.780;2022-12-18T04:32:25;62.20;;;19.40;;
56788;SDS011;42657;51.650;17.780;2022-12-18T04:35:27;83.90;;;22.30;;
56788;SDS011;42657;51.650;17.780;2022-12-18T04:38:29;86.40;;;24.70;;
56788;SDS011;42657;51.650;17.780;2022-12-18T04:41:30;74.40;;;23.40;;
56788;SDS011;42657;51.650;17.780;2022-12-18T04:44:32;69.30;;;21.80;;
56788;SDS011;42657;51.650;17.780;2022-12-18T04:47:33;80.20;;;23.00;;
56788;SDS011;42657;51.650;17.780;2022-12-18T04:50:35;78.80;;;22.20;;
56788;SDS011;42657;51.650;17.780;2022-12-18T04:53:36;78.50;;;23.20;;
56788;SDS011;42657;51.650;17.780;2022-12-18T04:56:37;95.40;;;25.00;;
56788;SDS011;42657;51.650;17.780;2022-12-18T04:59:39;83.70;;;23.50;;
56788;SDS011;42657;51.650;17.780;2022-12-18T05:02:40;93.90;;;24.20;;
56788;SDS011;42657;51.650;17.780;2022-12-18T05:05:42;122.90;;;35.70;;
56788;SDS011;42657;51.650;17.780;2022-12-18T05:08:43;86.90;;;25.50;;
56788;SDS011;42657;51.650;17.780;2022-12-18T05:11:45;81.80;;;23.40;;
56788;SDS011;42657;51.650;17.780;2022-12-18T05:14:46;75.90;;;22.80;;
56788;SDS011;42657;51.650;17.780;2022-12-18T05:17:48;73.60;;;22.00;;
56788;SDS011;42657;51.650;17.780;2022-12-18T05:20:50;77.90;;;22.60;;
56788;SDS011;42657;51.650;17.780;2022-12-18T05:23:52;72.70;;;20.50;;
56788;SDS011;42657;51.650;17.780;2022-12-18T05:26:54;85.50;;;23.70;;
56788;SDS011;42657;51.650;17.780;2022-12-18T05:29:55;86.50;;;23.70;;
56788;SDS011;42657;51.650;17.780;2022-12-18T05:32:57;74.00;;;21.40;;
56788;SDS011;42657;51.650;17.780;2022-12-18T05:36:00;74.20;;;22.10;;
56788;SDS011;42657;51.650;17.780;2022-12-18T05:39:04;69.00;;;21.20;;
56788;SDS011;42657;51.650;17.780;2022-12-18T05:42:05;65.00;;;20.60;;
56788;SDS011;42657;51.650;17.780;2022-12-18T05:45:07;84.10;;;25.10;;
56788;SDS011;42657;51.650;17.780;2022-12-18T05:48:09;89.80;;;24.10;;
56788;SDS011;42657;51.650;17.780;2022-12-18T05:51:15;90.20;;;29.10;;
56788;SDS011;42657;51.650;17.780;2022-12-18T05:54:17;68.80;;;20.10;;
56788;SDS011;42657;51.650;17.780;2022-12-18T05:57:19;70.50;;;21.20;;
56788;SDS011;42657;51.650;17.780;2022-12-18T06:00:20;64.40;;;19.80;;
56788;SDS011;42657;51.650;17.780;2022-12-18T06:03:22;71.10;;;20.90;;
56788;SDS011;42657;51.650;17.780;2022-12-18T06:06:24;86.50;;;24.70;;
56788;SDS011;42657;51.650;17.780;2022-12-18T06:09:28;93.30;;;25.70;;
56788;SDS011;42657;51.650;17.780;2022-12-18T06:12:31;83.20;;;23.90;;
56788;SDS011;42657;51.650;17.780;2022-12-18T06:15:35;77.30;;;21.70;;
56788;SDS011;42657;51.650;17.780;2022-12-18T06:18:38;84.90;;;24.00;;
56788;SDS011;42657;51.650;17.780;2022-12-18T06:21:39;75.30;;;22.50;;
56788;SDS011;42657;51.650;17.780;2022-12-18T06:24:41;74.80;;;22.50;;
56788;SDS011;42657;51.650;17.780;2022-12-18T06:27:42;69.20;;;20.40;;
56788;SDS011;42657;51.650;17.780;2022-12-18T06:30:45;90.90;;;21.80;;
56788;SDS011;42657;51.650;17.780;2022-12-18T06:33:47;77.70;;;21.70;;
56788;SDS011;42657;51.650;17.780;2022-12-18T06:36:49;70.30;;;20.60;;
56788;SDS011;42657;51.650;17.780;2022-12-18T06:39:50;71.60;;;22.40;;
56788;SDS011;42657;51.650;17.780;2022-12-18T06:42:51;77.30;;;22.50;;
56788;SDS011;42657;51.650;17.780;2022-12-18T06:45:58;84.70;;;22.10;;
56788;SDS011;42657;51.650;17.780;2022-12-18T06:49:00;77.50;;;20.70;;
56788;SDS011;42657;51.650;17.780;2022-12-18T06:52:02;61.90;;;20.90;;
56788;SDS011;42657;51.650;17.780;2022-12-18T06:55:04;74.20;;;19.80;;
56788;SDS011;42657;51.650;17.780;2022-12-18T06:58:06;55.40;;;17.60;;
56788;SDS011;42657;51.650;17.780;2022-12-18T07:01:09;74.70;;;20.00;;
56788;SDS011;42657;51.650;17.780;2022-12-18T07:04:12;63.80;;;19.30;;
56788;SDS011;42657;51.650;17.780;2022-12-18T07:07:13;56.50;;;18.00;;
56788;SDS011;42657;51.650;17.780;2022-12-18T07:10:15;63.40;;;18.30;;
56788;SDS011;42657;51.650;17.780;2022-12-18T07:13:16;54.80;;;16.20;;
56788;SDS011;42657;51.650;17.780;2022-12-18T07:16:18;65.00;;;18.10;;
56788;SDS011;42657;51.650;17.780;2022-12-18T07:19:21;61.00;;;19.50;;
56788;SDS011;42657;51.650;17.780;2022-12-18T07:22:24;53.20;;;18.80;;
56788;SDS011;42657;51.650;17.780;2022-12-18T07:25:26;56.30;;;17.70;;
56788;SDS011;42657;51.650;17.780;2022-12-18T07:28:28;51.70;;;16.90;;
56788;SDS011;42657;51.650;17.780;2022-12-18T07:31:29;54.40;;;16.80;;
56788;SDS011;42657;51.650;17.780;2022-12-18T07:34:31;55.70;;;17.80;;
56788;SDS011;42657;51.650;17.780;2022-12-18T07:37:32;68.10;;;19.10;;
56788;SDS011;42657;51.650;17.780;2022-12-18T07:40:34;72.30;;;20.00;;
56788;SDS011;42657;51.650;17.780;2022-12-18T07:43:35;56.70;;;17.20;;
56788;SDS011;42657;51.650;17.780;2022-12-18T07:46:38;61.00;;;17.90;;
56788;SDS011;42657;51.650;17.780;2022-12-18T07:49:39;64.90;;;19.10;;
56788;SDS011;42657;51.650;17.780;2022-12-18T07:52:41;78.80;;;21.10;;
56788;SDS011;42657;51.650;17.780;2022-12-18T07:55:42;75.90;;;23.50;;
56788;SDS011;42657;51.650;17.780;2022-12-18T07:58:44;72.80;;;24.10;;
56788;SDS011;42657;51.650;17.780;2022-12-18T08:01:45;72.70;;;21.40;;
56788;SDS011;42657;51.650;17.780;2022-12-18T08:04:47;60.60;;;18.30;;
56788;SDS011;42657;51.650;17.780;2022-12-18T08:07:48;59.70;;;18.50;;
56788;SDS011;42657;51.650;17.780;2022-12-18T08:10:50;59.60;;;18.60;;
56788;SDS011;42657;51.650;17.780;2022-12-18T08:13:51;58.20;;;17.80;;
56788;SDS011;42657;51.650;17.780;2022-12-18T08:16:53;67.00;;;20.60;;
56788;SDS011;42657;51.650;17.780;2022-12-18T08:19:55;56.90;;;16.70;;
56788;SDS011;42657;51.650;17.780;2022-12-18T08:22:56;53.70;;;16.00;;
56788;SDS011;42657;51.650;17.780;2022-12-18T08:25:58;49.60;;;16.90;;
56788;SDS011;42657;51.650;17.780;2022-12-18T08:29:00;43.40;;;15.50;;
56788;SDS011;42657;51.650;17.780;2022-12-18T08:32:01;41.90;;;13.70;;
56788;SDS011;42657;51.650;17.780;2022-12-18T08:35:03;49.10;;;15.30;;
56788;SDS011;42657;51.650;17.780;2022-12-18T08:38:05;38.30;;;13.20;;
56788;SDS011;42657;51.650;17.780;2022-12-18T08:41:13;41.50;;;14.60;;
56788;SDS011;42657;51.650;17.780;2022-12-18T08:44:16;47.30;;;16.40;;
56788;SDS011;42657;51.650;17.780;2022-12-18T08:47:17;42.30;;;13.40;;
56788;SDS011;42657;51.650;17.780;2022-12-18T08:50:19;64.90;;;19.40;;
56788;SDS011;42657;51.650;17.780;2022-12-18T08:53:20;50.90;;;15.40;;
56788;SDS011;42657;51.650;17.780;2022-12-18T08:56:22;66.40;;;19.50;;
56788;SDS011;42657;51.650;17.780;2022-12-18T08:59:23;61.90;;;19.30;;
56788;SDS011;42657;51.650;17.780;2022-12-18T09:02:25;56.90;;;18.70;;
56788;SDS011;42657;51.650;17.780;2022-12-18T09:05:26;45.10;;;14.40;;
56788;SDS011;42657;51.650;17.780;2022-12-18T09:08:28;52.50;;;16.30;;
56788;SDS011;42657;51.650;17.780;2022-12-18T09:11:30;49.20;;;17.10;;
56788;SDS011;42657;51.650;17.780;2022-12-18T09:14:33;46.50;;;15.00;;
56788;SDS011;42657;51.650;17.780;2022-12-18T09:17:35;50.90;;;15.40;;
56788;SDS011;42657;51.650;17.780;2022-12-18T09:20:36;58.90;;;23.70;;
56788;SDS011;42657;51.650;17.780;2022-12-18T09:23:38;68.80;;;23.90;;
56788;SDS011;42657;51.650;17.780;2022-12-18T09:26:40;54.40;;;18.90;;
56788;SDS011;42657;51.650;17.780;2022-12-18T09:29:42;64.10;;;19.90;;
56788;SDS011;42657;51.650;17.780;2022-12-18T09:32:43;60.20;;;19.30;;
56788;SDS011;42657;51.650;17.780;2022-12-18T09:35:45;58.10;;;18.80;;
56788;SDS011;42657;51.650;17.780;2022-12-18T09:38:47;54.10;;;19.00;;
56788;SDS011;42657;51.650;17.780;2022-12-18T09:41:52;63.50;;;22.10;;
56788;SDS011;42657;51.650;17.780;2022-12-18T09:44:56;56.60;;;16.80;;
56788;SDS011;42657;51.650;17.780;2022-12-18T09:47:59;55.60;;;19.20;;
56788;SDS011;42657;51.650;17.780;2022-12-18T09:51:04;62.30;;;20.20;;
56788;SDS011;42657;51.650;17.780;2022-12-18T09:54:17;51.30;;;18.20;;
56788;SDS011;42657;51.650;17.780;2022-12-18T09:57:23;49.30;;;17.70;;
56788;SDS011;42657;51.650;17.780;2022-12-18T10:00:25;54.50;;;20.40;;
56788;SDS011;42657;51.650;17.780;2022-12-18T10:03:36;47.40;;;18.60;;
56788;SDS011;42657;51.650;17.780;2022-12-18T10:10:26;50.80;;;17.30;;
56788;SDS011;42657;51.650;17.780;2022-12-18T10:13:39;51.20;;;18.30;;
56788;SDS011;42657;51.650;17.780;2022-12-18T10:16:57;57.00;;;18.60;;
56788;SDS011;42657;51.650;17.780;2022-12-18T10:23:25;59.40;;;21.30;;
56788;SDS011;42657;51.650;17.780;2022-12-18T10:26:34;56.30;;;21.10;;
56788;SDS011;42657;51.650;17.780;2022-12-18T10:29:36;63.20;;;21.30;;
56788;SDS011;42657;51.650;17.780;2022-12-18T10:32:38;58.70;;;21.50;;
56788;SDS011;42657;51.650;17.780;2022-12-18T10:35:41;51.20;;;18.70;;
56788;SDS011;42657;51.650;17.780;2022-12-18T10:38:43;59.90;;;20.50;;
56788;SDS011;42657;51.650;17.780;2022-12-18T10:41:45;54.40;;;19.50;;
56788;SDS011;42657;51.650;17.780;2022-12-18T10:44:46;48.90;;;19.10;;
56788;SDS011;42657;51.650;17.780;2022-12-18T10:48:03;47.60;;;19.00;;
56788;SDS011;42657;51.650;17.780;2022-12-18T10:51:05;46.50;;;17.50;;
56788;SDS011;42657;51.650;17.780;2022-12-18T10:54:19;40.40;;;17.40;;
56788;SDS011;42657;51.650;17.780;2022-12-18T10:57:34;43.20;;;16.10;;
56788;SDS011;42657;51.650;17.780;2022-12-18T11:00:38;48.30;;;18.20;;
56788;SDS011;42657;51.650;17.780;2022-12-18T11:03:41;41.10;;;14.70;;
56788;SDS011;42657;51.650;17.780;2022-12-18T11:06:59;49.70;;;18.20;;
56788;SDS011;42657;51.650;17.780;2022-12-18T11:10:01;48.80;;;17.70;;
56788;SDS011;42657;51.650;17.780;2022-12-18T11:13:17;47.40;;;19.40;;
56788;SDS011;42657;51.650;17.780;2022-12-18T11:16:21;45.60;;;17.70;;
56788;SDS011;42657;51.650;17.780;2022-12-18T11:22:39;45.40;;;16.90;;
56788;SDS011;42657;51.650;17.780;2022-12-18T11:25:40;43.00;;;17.50;;
56788;SDS011;42657;51.650;17.780;2022-12-18T11:29:07;37.40;;;15.00;;
56788;SDS011;42657;51.650;17.780;2022-12-18T11:35:44;44.40;;;17.30;;
56788;SDS011;42657;51.650;17.780;2022-12-18T11:38:52;46.00;;;16.70;;
56788;SDS011;42657;51.650;17.780;2022-12-18T11:42:02;51.40;;;19.00;;
56788;SDS011;42657;51.650;17.780;2022-12-18T11:51:51;53.70;;;21.40;;
56788;SDS011;42657;51.650;17.780;2022-12-18T11:55:01;50.10;;;21.30;;
56788;SDS011;42657;51.650;17.780;2022-12-18T11:58:16;46.30;;;18.30;;
56788;SDS011;42657;51.650;17.780;2022-12-18T12:01:40;48.30;;;20.10;;
56788;SDS011;42657;51.650;17.780;2022-12-18T12:08:47;55.80;;;21.50;;
56788;SDS011;42657;51.650;17.780;2022-12-18T12:21:52;57.60;;;22.20;;
56788;SDS011;42657;51.650;17.780;2022-12-18T12:25:21;70.00;;;24.90;;
56788;SDS011;42657;51.650;17.780;2022-12-18T12:32:01;54.50;;;20.00;;
56788;SDS011;42657;51.650;17.780;2022-12-18T12:35:18;46.40;;;16.50;;
56788;SDS011;42657;51.650;17.780;2022-12-18T12:38:47;47.30;;;18.90;;
56788;SDS011;42657;51.650;17.780;2022-12-18T12:41:54;59.90;;;24.70;;
56788;SDS011;42657;51.650;17.780;2022-12-18T12:44:56;59.30;;;23.10;;
56788;SDS011;42657;51.650;17.780;2022-12-18T12:48:05;52.60;;;19.30;;
56788;SDS011;42657;51.650;17.780;2022-12-18T12:51:24;53.70;;;19.20;;
56788;SDS011;42657;51.650;17.780;2022-12-18T12:54:29;50.50;;;19.00;;
56788;SDS011;42657;51.650;17.780;2022-12-18T12:57:34;50.60;;;19.10;;
56788;SDS011;42657;51.650;17.780;2022-12-18T13:00:44;45.60;;;17.10;;
56788;SDS011;42657;51.650;17.780;2022-12-18T13:07:39;56.20;;;21.60;;
56788;SDS011;42657;51.650;17.780;2022-12-18T13:10:47;64.60;;;24.20;;
56788;SDS011;42657;51.650;17.780;2022-12-18T13:13:50;68.90;;;26.30;;
56788;SDS011;42657;51.650;17.780;2022-12-18T13:17:13;92.20;;;33.30;;
56788;SDS011;42657;51.650;17.780;2022-12-18T13:20:20;77.50;;;27.50;;
56788;SDS011;42657;51.650;17.780;2022-12-18T13:33:30;58.70;;;21.20;;
56788;SDS011;42657;51.650;17.780;2022-12-18T13:36:37;60.40;;;22.70;;
56788;SDS011;42657;51.650;17.780;2022-12-18T13:39:39;83.20;;;30.60;;
56788;SDS011;42657;51.650;17.780;2022-12-18T13:42:41;92.10;;;34.30;;
56788;SDS011;42657;51.650;17.780;2022-12-18T13:45:44;90.20;;;32.40;;
56788;SDS011;42657;51.650;17.780;2022-12-18T13:52:19;62.20;;;23.00;;
56788;SDS011;42657;51.650;17.780;2022-12-18T13:58:25;55.30;;;22.60;;
56788;SDS011;42657;51.650;17.780;2022-12-18T14:01:27;87.80;;;36.00;;
56788;SDS011;42657;51.650;17.780;2022-12-18T14:04:29;80.10;;;31.20;;
56788;SDS011;42657;51.650;17.780;2022-12-18T14:07:33;90.80;;;40.30;;
56788;SDS011;42657;51.650;17.780;2022-12-18T14:10:34;99.10;;;44.60;;
56788;SDS011;42657;51.650;17.780;2022-12-18T14:13:37;99.30;;;42.00;;
56788;SDS011;42657;51.650;17.780;2022-12-18T14:16:45;93.70;;;35.60;;
56788;SDS011;42657;51.650;17.780;2022-12-18T14:19:48;72.30;;;26.60;;
56788;SDS011;42657;51.650;17.780;2022-12-18T14:22:52;86.00;;;29.80;;
56788;SDS011;42657;51.650;17.780;2022-12-18T14:25:54;85.40;;;25.70;;
56788;SDS011;42657;51.650;17.780;2022-12-18T14:28:56;66.30;;;26.20;;
56788;SDS011;42657;51.650;17.780;2022-12-18T14:32:12;78.80;;;29.60;;
56788;SDS011;42657;51.650;17.780;2022-12-18T14:35:17;72.40;;;24.80;;
56788;SDS011;42657;51.650;17.780;2022-12-18T14:38:20;72.60;;;25.90;;
56788;SDS011;42657;51.650;17.780;2022-12-18T14:41:26;80.20;;;26.90;;
56788;SDS011;42657;51.650;17.780;2022-12-18T14:44:28;78.70;;;27.70;;
56788;SDS011;42657;51.650;17.780;2022-12-18T14:47:30;85.90;;;27.80;;
56788;SDS011;42657;51.650;17.780;2022-12-18T14:50:31;72.40;;;25.40;;
56788;SDS011;42657;51.650;17.780;2022-12-18T14:53:34;81.30;;;29.10;;
56788;SDS011;42657;51.650;17.780;2022-12-18T14:56:45;67.10;;;27.10;;
56788;SDS011;42657;51.650;17.780;2022-12-18T14:59:49;71.20;;;27.00;;
56788;SDS011;42657;51.650;17.780;2022-12-18T15:02:55;100.90;;;35.70;;
56788;SDS011;42657;51.650;17.780;2022-12-18T15:06:14;85.70;;;30.30;;
56788;SDS011;42657;51.650;17.780;2022-12-18T15:09:22;70.20;;;25.50;;
56788;SDS011;42657;51.650;17.780;2022-12-18T15:18:35;86.50;;;26.30;;
56788;SDS011;42657;51.650;17.780;2022-12-18T15:21:43;63.40;;;22.90;;
56788;SDS011;42657;51.650;17.780;2022-12-18T15:24:45;63.40;;;22.90;;
56788;SDS011;42657;51.650;17.780;2022-12-18T15:27:47;58.80;;;21.90;;
56788;SDS011;42657;51.650;17.780;2022-12-18T15:37:07;75.00;;;22.40;;
56788;SDS011;42657;51.650;17.780;2022-12-18T15:40:15;213.80;;;51.00;;
56788;SDS011;42657;51.650;17.780;2022-12-18T15:43:20;148.80;;;38.20;;
56788;SDS011;42657;51.650;17.780;2022-12-18T15:46:25;185.60;;;47.50;;
56788;SDS011;42657;51.650;17.780;2022-12-18T15:49:27;229.70;;;56.00;;
56788;SDS011;42657;51.650;17.780;2022-12-18T15:52:28;173.10;;;45.10;;
56788;SDS011;42657;51.650;17.780;2022-12-18T15:55:30;209.60;;;52.40;;
56788;SDS011;42657;51.650;17.780;2022-12-18T15:58:31;253.60;;;63.10;;
56788;SDS011;42657;51.650;17.780;2022-12-18T16:01:33;180.20;;;52.00;;
56788;SDS011;42657;51.650;17.780;2022-12-18T16:04:35;202.50;;;52.90;;
56788;SDS011;42657;51.650;17.780;2022-12-18T16:07:36;168.70;;;50.80;;
56788;SDS011;42657;51.650;17.780;2022-12-18T16:10:38;169.70;;;50.10;;
56788;SDS011;42657;51.650;17.780;2022-12-18T16:13:40;205.80;;;60.10;;
56788;SDS011;42657;51.650;17.780;2022-12-18T16:16:41;211.00;;;62.00;;
56788;SDS011;42657;51.650;17.780;2022-12-18T16:19:43;87.20;;;29.10;;
56788;SDS011;42657;51.650;17.780;2022-12-18T16:22:45;68.80;;;24.90;;
56788;SDS011;42657;51.650;17.780;2022-12-18T16:25:47;105.80;;;34.60;;
56788;SDS011;42657;51.650;17.780;2022-12-18T16:28:49;106.40;;;33.00;;
56788;SDS011;42657;51.650;17.780;2022-12-18T16:31:50;133.00;;;43.20;;
56788;SDS011;42657;51.650;17.780;2022-12-18T16:34:52;134.40;;;46.70;;
56788;SDS011;42657;51.650;17.780;2022-12-18T16:37:55;116.50;;;39.70;;
56788;SDS011;42657;51.650;17.780;2022-12-18T16:40:57;117.90;;;41.70;;
56788;SDS011;42657;51.650;17.780;2022-12-18T16:43:59;114.50;;;35.00;;
56788;SDS011;42657;51.650;17.780;2022-12-18T16:47:01;103.30;;;36.80;;
56788;SDS011;42657;51.650;17.780;2022-12-18T16:50:03;103.90;;;36.00;;
56788;SDS011;42657;51.650;17.780;2022-12-18T16:53:06;104.60;;;36.90;;
56788;SDS011;42657;51.650;17.780;2022-12-18T16:56:11;101.20;;;35.00;;
56788;SDS011;42657;51.650;17.780;2022-12-18T16:59:12;81.30;;;28.90;;
56788;SDS011;42657;51.650;17.780;2022-12-18T17:02:21;74.20;;;25.50;;
56788;SDS011;42657;51.650;17.780;2022-12-18T17:05:25;74.40;;;24.00;;
56788;SDS011;42657;51.650;17.780;2022-12-18T17:08:27;67.20;;;24.40;;
56788;SDS011;42657;51.650;17.780;2022-12-18T17:11:30;66.90;;;22.70;;
56788;SDS011;42657;51.650;17.780;2022-12-18T17:14:33;97.20;;;32.10;;
56788;SDS011;42657;51.650;17.780;2022-12-18T17:17:35;118.90;;;40.50;;
56788;SDS011;42657;51.650;17.780;2022-12-18T17:20:36;86.00;;;29.20;;
56788;SDS011;42657;51.650;17.780;2022-12-18T17:23:38;82.80;;;28.40;;
56788;SDS011;42657;51.650;17.780;2022-12-18T17:26:42;67.10;;;23.80;;
56788;SDS011;42657;51.650;17.780;2022-12-18T17:29:44;76.20;;;24.60;;
56788;SDS011;42657;51.650;17.780;2022-12-18T17:32:45;75.40;;;24.90;;
56788;SDS011;42657;51.650;17.780;2022-12-18T17:35:47;93.60;;;28.70;;
56788;SDS011;42657;51.650;17.780;2022-12-18T17:38:56;106.90;;;33.10;;
56788;SDS011;42657;51.650;17.780;2022-12-18T17:41:59;114.40;;;33.00;;
56788;SDS011;42657;51.650;17.780;2022-12-18T17:45:01;88.20;;;26.10;;
56788;SDS011;42657;51.650;17.780;2022-12-18T17:48:03;91.30;;;24.60;;
56788;SDS011;42657;51.650;17.780;2022-12-18T17:51:06;89.20;;;27.10;;
56788;SDS011;42657;51.650;17.780;2022-12-18T17:54:10;88.90;;;25.90;;
56788;SDS011;42657;51.650;17.780;2022-12-18T17:57:11;92.70;;;26.90;;
56788;SDS011;42657;51.650;17.780;2022-12-18T18:00:13;110.90;;;30.90;;
56788;SDS011;42657;51.650;17.780;2022-12-18T18:03:15;125.70;;;35.30;;
56788;SDS011;42657;51.650;17.780;2022-12-18T18:06:17;211.30;;;57.40;;
56788;SDS011;42657;51.650;17.780;2022-12-18T18:09:18;85.60;;;26.80;;
56788;SDS011;42657;51.650;17.780;2022-12-18T18:12:20;85.50;;;26.70;;
56788;SDS011;42657;51.650;17.780;2022-12-18T18:15:22;90.50;;;30.80;;
56788;SDS011;42657;51.650;17.780;2022-12-18T18:18:23;99.70;;;27.40;;
56788;SDS011;42657;51.650;17.780;2022-12-18T18:21:26;84.70;;;25.80;;
56788;SDS011;42657;51.650;17.780;2022-12-18T18:24:28;112.10;;;29.90;;
56788;SDS011;42657;51.650;17.780;2022-12-18T18:27:30;99.70;;;29.80;;
56788;SDS011;42657;51.650;17.780;2022-12-18T18:30:34;119.80;;;34.40;;
56788;SDS011;42657;51.650;17.780;2022-12-18T18:33:37;115.70;;;36.50;;
56788;SDS011;42657;51.650;17.780;2022-12-18T18:36:38;103.70;;;29.90;;
56788;SDS011;42657;51.650;17.780;2022-12-18T18:39:40;95.30;;;30.20;;
56788;SDS011;42657;51.650;17.780;2022-12-18T18:42:42;96.90;;;30.40;;
56788;SDS011;42657;51.650;17.780;2022-12-18T18:45:43;95.70;;;28.60;;
56788;SDS011;42657;51.650;17.780;2022-12-18T18:48:45;101.20;;;28.60;;
56788;SDS011;42657;51.650;17.780;2022-12-18T18:51:48;129.60;;;35.50;;
56788;SDS011;42657;51.650;17.780;2022-12-18T18:54:50;92.70;;;30.50;;
56788;SDS011;42657;51.650;17.780;2022-12-18T18:57:52;104.20;;;31.00;;
56788;SDS011;42657;51.650;17.780;2022-12-18T19:01:13;106.10;;;31.80;;
56788;SDS011;42657;51.650;17.780;2022-12-18T19:04:17;122.60;;;33.90;;
56788;SDS011;42657;51.650;17.780;2022-12-18T19:07:19;124.80;;;38.10;;
56788;SDS011;42657;51.650;17.780;2022-12-18T19:10:20;133.80;;;42.40;;